Time;durP1;ratioP1;P1;durP2;ratioP2;P2;SDS_P1;SDS_P2;PMS_P1;PMS_P2;Temp;Humidity;BMP_temperature;BMP_pressure;BME280_temperature;BME280_humidity;BME280_pressure;Samples;Min_cycle;Max_cycle;Signal;HPM_P1;HPM_P2
2023/07/28 00:01:49;;;;;;;28.92;18.17;;;17.80;99.90;;;;;;7370041;19;20023;-57
2023/07/28 00:04:15;;;;;;;32.33;19.95;;;17.80;99.90;;;;;;7371777;19;20859;-56
2023/07/28 00:06:42;;;;;;;30.77;17.77;;;17.80;99.90;;;;;;7372899;19;20378;-57
2023/07/28 00:09:08;;;;;;;34.25;17.65;;;17.70;99.90;;;;;;7369606;19;20018;-56
2023/07/28 00:11:34;;;;;;;25.23;17.48;;;17.70;99.90;;;;;;7370462;19;20040;-56
2023/07/28 00:14:00;;;;;;;29.50;17.90;;;17.80;99.90;;;;;;7371985;19;20358;-57
2023/07/28 00:16:27;;;;;;;28.30;17.77;;;17.80;99.90;;;;;;7370765;19;20018;-56
2023/07/28 00:18:53;;;;;;;25.85;16.92;;;17.80;99.90;;;;;;7370873;19;20015;-57
2023/07/28 00:21:19;;;;;;;29.73;18.63;;;17.80;99.90;;;;;;7370368;19;20022;-56
2023/07/28 00:23:46;;;;;;;31.95;18.58;;;17.70;99.90;;;;;;7368533;19;20022;-57
2023/07/28 00:26:12;;;;;;;31.38;18.65;;;17.80;99.90;;;;;;7366536;19;20018;-57
2023/07/28 00:28:39;;;;;;;34.40;18.65;;;17.80;99.90;;;;;;7364545;19;20022;-56
2023/07/28 00:31:05;;;;;;;34.28;21.00;;;17.80;99.90;;;;;;7365000;19;20029;-64
2023/07/28 00:33:31;;;;;;;30.95;19.10;;;17.80;99.90;;;;;;7370473;19;20465;-64
2023/07/28 00:35:58;;;;;;;32.05;20.02;;;17.80;99.90;;;;;;7371211;19;20021;-64
2023/07/28 00:38:25;;;;;;;31.20;20.38;;;17.80;99.90;;;;;;7371351;19;20022;-64
2023/07/28 00:40:52;;;;;;;32.47;20.58;;;17.80;99.90;;;;;;7368815;19;20370;-64
2023/07/28 00:43:18;;;;;;;33.00;20.42;;;17.80;99.90;;;;;;7368971;19;20021;-57
2023/07/28 00:45:45;;;;;;;31.90;20.67;;;17.80;99.90;;;;;;7371415;19;20057;-56
2023/07/28 00:48:14;;;;;;;30.65;20.52;;;17.80;99.90;;;;;;7370559;19;20022;-57
2023/07/28 00:50:48;;;;;;;33.20;20.38;;;17.80;99.90;;;;;;7366707;19;20609;-56
2023/07/28 00:53:15;;;;;;;34.05;21.00;;;17.70;99.90;;;;;;7370356;19;20014;-56
2023/07/28 00:55:42;;;;;;;34.97;21.27;;;17.80;99.90;;;;;;7371180;19;21419;-63
2023/07/28 00:58:09;;;;;;;40.25;22.38;;;17.80;99.90;;;;;;7371892;19;20018;-65
2023/07/28 01:00:36;;;;;;;37.42;21.55;;;17.80;99.90;;;;;;7370446;19;20545;-65
2023/07/28 01:03:03;;;;;;;34.08;21.77;;;17.80;99.90;;;;;;7371085;19;20018;-57
2023/07/28 01:05:42;;;;;;;35.58;20.83;;;17.80;99.90;;;;;;7372278;19;20014;-64
2023/07/28 01:08:21;;;;;;;38.97;22.73;;;17.80;99.90;;;;;;7371772;19;20022;-65
2023/07/28 01:10:48;;;;;;;38.13;22.98;;;17.80;99.90;;;;;;7371114;19;20019;-57
2023/07/28 01:13:14;;;;;;;38.88;22.20;;;17.80;99.90;;;;;;7370946;19;20022;-57
2023/07/28 01:15:41;;;;;;;38.67;23.00;;;17.80;99.90;;;;;;7370839;19;20381;-57
2023/07/28 01:18:07;;;;;;;42.35;22.45;;;17.80;99.90;;;;;;7371898;19;20161;-58
2023/07/28 01:20:36;;;;;;;44.92;23.70;;;17.80;99.90;;;;;;7371171;19;20027;-57
2023/07/28 01:23:37;;;;;;;40.35;22.98;;;17.70;99.90;;;;;;7366400;19;20026;-58
2023/07/28 01:26:09;;;;;;;45.22;24.08;;;17.80;99.90;;;;;;7366941;19;20035;-57
2023/07/28 01:28:37;;;;;;;50.63;24.17;;;17.80;99.90;;;;;;7371523;19;20070;-57
2023/07/28 01:31:06;;;;;;;46.92;25.98;;;17.70;99.90;;;;;;7368110;19;20018;-65
2023/07/28 01:33:33;;;;;;;49.10;27.27;;;17.80;99.90;;;;;;7367803;19;20054;-65
2023/07/28 01:36:00;;;;;;;55.97;28.60;;;17.80;99.90;;;;;;7368488;19;20473;-57
2023/07/28 01:38:30;;;;;;;51.92;26.92;;;17.80;99.90;;;;;;7369056;19;20042;-64
2023/07/28 01:40:57;;;;;;;43.53;26.88;;;17.80;99.90;;;;;;7366746;19;20035;-56
2023/07/28 01:43:23;;;;;;;56.80;27.65;;;17.80;99.90;;;;;;7364979;19;20866;-57
2023/07/28 01:45:49;;;;;;;49.67;28.80;;;17.80;99.90;;;;;;7364034;19;20026;-57
2023/07/28 01:48:15;;;;;;;48.80;27.77;;;17.70;99.90;;;;;;7369248;19;20018;-56
2023/07/28 01:50:41;;;;;;;52.58;28.48;;;17.70;99.90;;;;;;7361101;19;20522;-57
2023/07/28 01:53:08;;;;;;;56.33;29.17;;;17.70;99.90;;;;;;7366167;19;20014;-55
2023/07/28 01:55:35;;;;;;;48.65;28.13;;;17.70;99.90;;;;;;7367979;19;20022;-56
2023/07/28 01:58:03;;;;;;;56.65;29.83;;;17.70;99.90;;;;;;7370945;19;20018;-63
2023/07/28 02:00:29;;;;;;;55.70;29.08;;;17.70;99.90;;;;;;7369215;19;20481;-64
2023/07/28 02:02:57;;;;;;;55.15;30.98;;;17.80;99.90;;;;;;7367369;19;20041;-62
2023/07/28 02:05:24;;;;;;;55.03;28.80;;;17.70;99.90;;;;;;7370275;19;20014;-62
2023/07/28 02:07:50;;;;;;;57.92;30.27;;;17.80;99.90;;;;;;7370691;19;20050;-64
2023/07/28 02:10:16;;;;;;;62.67;31.10;;;17.80;99.90;;;;;;7371445;19;20025;-64
2023/07/28 02:12:42;;;;;;;56.80;28.88;;;17.80;99.90;;;;;;7366939;19;20485;-57
2023/07/28 02:15:10;;;;;;;52.90;28.15;;;17.80;99.90;;;;;;7369587;19;20034;-56
2023/07/28 02:17:36;;;;;;;49.72;30.15;;;17.80;99.90;;;;;;7368688;19;20495;-57
2023/07/28 02:20:03;;;;;;;51.30;29.35;;;17.80;99.90;;;;;;7369394;19;20019;-57
2023/07/28 02:22:30;;;;;;;45.40;28.38;;;17.80;99.90;;;;;;7364961;19;20014;-58
2023/07/28 02:25:01;;;;;;;57.20;30.55;;;17.70;99.90;;;;;;7368739;19;20022;-65
2023/07/28 02:27:28;;;;;;;45.97;28.40;;;17.80;99.90;;;;;;7371253;19;20026;-65
2023/07/28 02:29:55;;;;;;;54.60;30.70;;;17.70;99.90;;;;;;7370822;19;20037;-64
2023/07/28 02:32:22;;;;;;;49.22;28.45;;;17.70;99.90;;;;;;7369721;19;20432;-58
2023/07/28 02:34:49;;;;;;;57.92;31.15;;;17.80;99.90;;;;;;7368252;19;20026;-63
2023/07/28 02:37:16;;;;;;;53.45;29.80;;;17.70;99.90;;;;;;7366527;19;20015;-65
2023/07/28 02:39:42;;;;;;;44.58;28.58;;;17.80;99.90;;;;;;7363803;19;20023;-65
2023/07/28 02:42:09;;;;;;;48.45;29.83;;;17.70;99.90;;;;;;7366630;19;20015;-64
2023/07/28 02:44:36;;;;;;;46.33;29.00;;;17.70;99.90;;;;;;7369062;19;20018;-65
2023/07/28 02:47:02;;;;;;;45.35;29.40;;;17.80;99.90;;;;;;7369376;19;20018;-65
2023/07/28 02:49:28;;;;;;;47.15;29.80;;;17.80;99.90;;;;;;7368813;19;20457;-64
2023/07/28 02:51:55;;;;;;;46.67;29.90;;;17.80;99.90;;;;;;7367468;19;20018;-64
2023/07/28 02:54:23;;;;;;;48.60;29.25;;;17.80;99.90;;;;;;7365549;19;20029;-64
2023/07/28 02:56:50;;;;;;;49.67;29.77;;;17.80;99.90;;;;;;7367793;19;20018;-65
2023/07/28 02:59:16;;;;;;;46.30;30.23;;;17.80;99.90;;;;;;7371153;19;20019;-65
2023/07/28 03:01:42;;;;;;;56.08;29.80;;;17.80;99.90;;;;;;7368035;19;20021;-65
2023/07/28 03:04:09;;;;;;;47.22;28.50;;;17.80;99.90;;;;;;7369059;19;20030;-64
2023/07/28 03:06:54;;;;;;;46.35;28.55;;;17.80;99.90;;;;;;7366267;19;20023;-57
2023/07/28 03:09:20;;;;;;;46.33;28.63;;;17.80;99.90;;;;;;7367477;19;20025;-63
2023/07/28 03:11:57;;;;;;;50.80;29.13;;;17.80;99.90;;;;;;7366258;19;20492;-63
2023/07/28 03:14:23;;;;;;;47.13;28.08;;;17.80;99.90;;;;;;7367262;19;20047;-57
2023/07/28 03:16:50;;;;;;;42.30;29.13;;;17.80;99.90;;;;;;7371198;19;20041;-65
2023/07/28 03:19:17;;;;;;;45.33;27.83;;;17.80;99.90;;;;;;7375517;19;20101;-57
2023/07/28 03:21:43;;;;;;;44.05;28.77;;;17.90;99.90;;;;;;7373677;19;20114;-55
2023/07/28 03:24:10;;;;;;;44.65;28.15;;;17.90;99.90;;;;;;7374886;19;20023;-56
2023/07/28 03:26:36;;;;;;;46.78;27.48;;;17.80;99.90;;;;;;7373809;19;20469;-63
2023/07/28 03:29:03;;;;;;;42.30;26.88;;;17.90;99.90;;;;;;7374726;19;20010;-63
2023/07/28 03:31:29;;;;;;;47.13;27.92;;;17.80;99.90;;;;;;7375185;19;20377;-56
2023/07/28 03:33:56;;;;;;;42.10;26.90;;;17.80;99.90;;;;;;7373483;19;20691;-55
2023/07/28 03:36:25;;;;;;;52.47;27.92;;;17.90;99.90;;;;;;7373195;19;20018;-56
2023/07/28 03:38:52;;;;;;;44.80;26.77;;;17.80;99.90;;;;;;7377147;19;20029;-56
2023/07/28 03:41:18;;;;;;;44.72;26.77;;;17.80;99.90;;;;;;7372819;19;20026;-56
2023/07/28 03:43:45;;;;;;;41.75;26.75;;;17.90;99.90;;;;;;7373122;19;20014;-56
2023/07/28 03:46:11;;;;;;;43.97;27.40;;;17.80;99.90;;;;;;7371419;19;21199;-57
2023/07/28 03:48:38;;;;;;;45.70;27.33;;;17.90;99.90;;;;;;7370989;19;20021;-64
2023/07/28 03:51:04;;;;;;;40.13;27.13;;;17.90;99.90;;;;;;7368346;19;20094;-65
2023/07/28 03:53:30;;;;;;;42.95;26.88;;;17.90;99.90;;;;;;7374664;19;20018;-64
2023/07/28 03:55:58;;;;;;;48.95;28.55;;;17.90;99.90;;;;;;7370831;19;20667;-64
2023/07/28 03:58:25;;;;;;;48.60;28.48;;;17.90;99.90;;;;;;7368935;19;20410;-64
2023/07/28 04:00:53;;;;;;;45.20;28.42;;;17.90;99.90;;;;;;7372613;19;20022;-64
2023/07/28 04:03:20;;;;;;;49.72;29.60;;;17.90;99.90;;;;;;7369613;19;20019;-64
2023/07/28 04:05:46;;;;;;;44.47;29.27;;;17.90;99.90;;;;;;7372135;19;20039;-56
2023/07/28 04:08:12;;;;;;;46.58;28.25;;;17.90;99.90;;;;;;7374131;19;20024;-64
2023/07/28 04:10:39;;;;;;;47.15;27.70;;;17.90;99.90;;;;;;7375271;19;20018;-56
2023/07/28 04:13:05;;;;;;;46.95;28.42;;;17.90;99.90;;;;;;7370756;19;20023;-56
2023/07/28 04:15:32;;;;;;;44.00;28.52;;;17.90;99.90;;;;;;7368214;19;20619;-56
2023/07/28 04:17:58;;;;;;;47.30;29.08;;;17.90;99.90;;;;;;7372295;19;20477;-56
2023/07/28 04:20:24;;;;;;;51.75;28.10;;;17.90;99.90;;;;;;7373692;19;20037;-56
2023/07/28 04:22:51;;;;;;;50.25;28.15;;;17.90;99.90;;;;;;7372598;19;20041;-57
2023/07/28 04:25:17;;;;;;;41.15;27.13;;;17.90;99.90;;;;;;7369702;19;20022;-65
2023/07/28 04:27:46;;;;;;;44.13;26.38;;;17.90;99.90;;;;;;7369398;19;20367;-56
2023/07/28 04:30:13;;;;;;;41.47;27.85;;;17.90;99.90;;;;;;7372930;19;20018;-57
2023/07/28 04:32:39;;;;;;;42.28;25.25;;;18.00;99.90;;;;;;7370479;19;20017;-56
2023/07/28 04:35:12;;;;;;;45.22;28.70;;;18.00;99.90;;;;;;7371152;19;20018;-65
2023/07/28 04:37:43;;;;;;;48.80;26.83;;;17.90;99.90;;;;;;7370430;19;20478;-56
2023/07/28 04:40:12;;;;;;;38.67;26.02;;;18.00;99.90;;;;;;7375465;19;20023;-56
2023/07/28 04:42:38;;;;;;;42.47;25.67;;;18.00;99.90;;;;;;7373016;19;20671;-56
2023/07/28 04:45:07;;;;;;;46.95;26.92;;;18.00;99.90;;;;;;7374092;19;20081;-56
2023/07/28 04:47:34;;;;;;;46.13;28.08;;;18.00;99.90;;;;;;7371318;19;20044;-57
2023/07/28 04:50:01;;;;;;;41.08;25.95;;;18.00;99.90;;;;;;7373863;19;20029;-57
2023/07/28 04:53:03;;;;;;;43.65;25.63;;;18.00;99.90;;;;;;7372278;19;20026;-56
2023/07/28 04:55:48;;;;;;;46.40;27.15;;;18.10;99.90;;;;;;7368066;19;20078;-56
2023/07/28 04:58:14;;;;;;;45.15;26.23;;;18.00;99.90;;;;;;7371620;19;20066;-56
2023/07/28 05:00:49;;;;;;;42.58;26.80;;;18.00;99.90;;;;;;7369135;19;20015;-56
2023/07/28 05:03:15;;;;;;;46.10;25.48;;;18.10;99.90;;;;;;7369062;19;20025;-56
2023/07/28 05:05:50;;;;;;;40.30;27.25;;;18.00;99.90;;;;;;7372849;19;20106;-57
2023/07/28 05:08:16;;;;;;;45.97;27.63;;;18.10;99.90;;;;;;7370591;19;20510;-69
2023/07/28 05:10:43;;;;;;;49.15;26.83;;;18.10;99.90;;;;;;7371539;19;20010;-65
2023/07/28 05:13:10;;;;;;;48.28;28.42;;;18.10;99.90;;;;;;7369879;19;20011;-56
2023/07/28 05:15:37;;;;;;;45.13;26.95;;;18.10;99.90;;;;;;7370198;19;20046;-56
2023/07/28 05:18:06;;;;;;;41.35;26.42;;;18.10;99.90;;;;;;7367831;19;20030;-57
2023/07/28 05:20:58;;;;;;;43.05;26.27;;;18.10;99.90;;;;;;7365606;19;20015;-57
2023/07/28 05:23:24;;;;;;;44.58;26.42;;;18.10;99.90;;;;;;7370623;19;20028;-64
2023/07/28 05:25:50;;;;;;;44.03;27.35;;;18.10;99.90;;;;;;7369239;19;20026;-58
2023/07/28 05:28:17;;;;;;;41.65;26.15;;;18.10;99.90;;;;;;7367478;19;20425;-65
2023/07/28 05:30:44;;;;;;;48.63;26.23;;;18.10;99.90;;;;;;7368091;19;20387;-64
2023/07/28 05:33:11;;;;;;;42.03;27.63;;;18.10;99.90;;;;;;7367562;19;20468;-64
2023/07/28 05:35:47;;;;;;;35.78;24.60;;;18.20;99.90;;;;;;7362715;19;20488;-63
2023/07/28 05:38:14;;;;;;;42.65;27.33;;;18.10;99.90;;;;;;7370561;19;20437;-64
2023/07/28 05:40:40;;;;;;;36.40;25.15;;;18.20;99.90;;;;;;7373291;19;20101;-66
2023/07/28 05:43:07;;;;;;;40.80;25.33;;;18.20;99.90;;;;;;7370671;19;20565;-64
2023/07/28 05:45:35;;;;;;;38.05;25.25;;;18.20;99.90;;;;;;7366823;19;20106;-65
2023/07/28 05:48:01;;;;;;;37.58;26.73;;;18.20;99.90;;;;;;7366862;19;20099;-65
2023/07/28 05:50:28;;;;;;;43.65;25.60;;;18.20;99.90;;;;;;7368620;19;20021;-56
2023/07/28 05:52:57;;;;;;;39.60;26.40;;;18.30;99.90;;;;;;7369448;19;20026;-58
2023/07/28 05:55:23;;;;;;;39.80;25.63;;;18.30;99.90;;;;;;7372410;19;20354;-57
2023/07/28 05:57:50;;;;;;;41.10;25.33;;;18.30;99.90;;;;;;7371668;19;20011;-58
2023/07/28 06:00:16;;;;;;;38.42;25.65;;;18.30;99.90;;;;;;7374835;19;20038;-57
2023/07/28 06:02:43;;;;;;;38.90;25.10;;;18.40;99.90;;;;;;7372741;19;20025;-61
2023/07/28 06:05:18;;;;;;;38.38;25.02;;;18.40;99.90;;;;;;7369710;19;20800;-65
2023/07/28 06:07:44;;;;;;;34.38;23.02;;;18.40;99.90;;;;;;7370647;19;20022;-66
2023/07/28 06:10:10;;;;;;;40.67;25.02;;;18.50;99.90;;;;;;7368250;19;20607;-55
2023/07/28 06:12:37;;;;;;;31.83;23.63;;;18.50;99.90;;;;;;7371796;19;20019;-56
2023/07/28 06:15:03;;;;;;;35.85;23.50;;;18.60;99.90;;;;;;7366934;19;20577;-56
2023/07/28 06:17:33;;;;;;;33.97;22.38;;;18.70;99.90;;;;;;7368698;19;20015;-56
2023/07/28 06:20:00;;;;;;;35.13;22.42;;;18.70;99.90;;;;;;7368845;19;20399;-63
2023/07/28 06:22:26;;;;;;;30.17;22.00;;;18.70;99.90;;;;;;7373912;19;20010;-66
2023/07/28 06:24:52;;;;;;;31.60;22.88;;;18.80;99.90;;;;;;7370889;19;20525;-58
2023/07/28 06:27:19;;;;;;;29.40;21.25;;;18.90;99.90;;;;;;7372514;19;20015;-55
2023/07/28 06:29:45;;;;;;;30.35;20.33;;;19.00;99.90;;;;;;7370470;19;20391;-66
2023/07/28 06:32:11;;;;;;;27.27;18.40;;;19.10;99.90;;;;;;7374300;19;20030;-58
2023/07/28 06:34:38;;;;;;;24.08;18.85;;;19.20;99.90;;;;;;7368954;19;20019;-57
2023/07/28 06:37:04;;;;;;;20.45;16.48;;;19.40;99.90;;;;;;7368093;19;20452;-57
2023/07/28 06:39:31;;;;;;;22.75;17.63;;;19.40;99.90;;;;;;7370362;19;20037;-57
2023/07/28 06:41:57;;;;;;;18.90;15.63;;;19.60;99.90;;;;;;7373822;19;20931;-59
2023/07/28 06:44:25;;;;;;;20.10;15.98;;;19.60;99.90;;;;;;7371083;19;20062;-57
2023/07/28 06:46:52;;;;;;;20.73;16.25;;;19.60;99.90;;;;;;7367700;19;20359;-57
2023/07/28 06:49:18;;;;;;;16.92;14.60;;;19.60;99.90;;;;;;7369587;19;20084;-57
2023/07/28 06:51:44;;;;;;;19.08;15.05;;;19.50;99.90;;;;;;7376413;19;20735;-57
2023/07/28 06:54:12;;;;;;;18.40;15.65;;;19.50;99.90;;;;;;7377168;19;20026;-57
2023/07/28 06:56:40;;;;;;;18.13;14.30;;;19.50;99.90;;;;;;7377777;19;20095;-57
2023/07/28 06:59:07;;;;;;;18.50;13.60;;;19.50;99.90;;;;;;7378853;19;20022;-57
2023/07/28 07:01:33;;;;;;;14.48;12.85;;;19.50;99.90;;;;;;7377151;19;20018;-57
2023/07/28 07:04:00;;;;;;;15.43;12.77;;;19.60;99.90;;;;;;7376034;19;20018;-57
2023/07/28 07:06:27;;;;;;;17.35;13.93;;;19.60;99.90;;;;;;7376798;19;20576;-57
2023/07/28 07:08:53;;;;;;;15.73;13.90;;;19.60;99.90;;;;;;7376297;19;20485;-57
2023/07/28 07:11:19;;;;;;;20.08;13.63;;;19.70;99.90;;;;;;7377253;19;20505;-57
2023/07/28 07:13:46;;;;;;;17.23;11.75;;;19.70;99.90;;;;;;7375677;19;20137;-57
2023/07/28 07:16:16;;;;;;;12.48;11.10;;;19.80;99.90;;;;;;7373831;19;20130;-57
2023/07/28 07:18:43;;;;;;;15.55;12.10;;;19.80;99.90;;;;;;7374953;19;20018;-60
2023/07/28 07:21:10;;;;;;;13.13;11.85;;;19.80;99.90;;;;;;7375427;19;20028;-57
2023/07/28 07:23:37;;;;;;;17.20;12.32;;;19.80;99.90;;;;;;7375192;19;20612;-57
2023/07/28 07:26:04;;;;;;;14.20;12.63;;;19.80;99.90;;;;;;7372437;19;20081;-56
2023/07/28 07:28:30;;;;;;;15.20;12.95;;;19.80;99.90;;;;;;7376641;19;20086;-58
2023/07/28 07:30:56;;;;;;;15.77;11.68;;;19.80;99.90;;;;;;7376582;19;20025;-57
2023/07/28 07:33:24;;;;;;;16.67;13.00;;;19.90;99.90;;;;;;7373926;19;20514;-57
2023/07/28 07:35:50;;;;;;;13.65;12.20;;;19.80;99.90;;;;;;7375750;19;20561;-58
2023/07/28 07:38:17;;;;;;;15.02;12.02;;;19.90;99.90;;;;;;7378667;19;20030;-58
2023/07/28 07:40:46;;;;;;;15.55;12.65;;;19.90;99.90;;;;;;7368340;19;20031;-57
2023/07/28 07:43:18;;;;;;;16.48;13.98;;;20.00;99.90;;;;;;7373537;19;20604;-58
2023/07/28 07:45:46;;;;;;;13.40;12.00;;;20.20;99.90;;;;;;7372157;19;20089;-57
2023/07/28 07:48:13;;;;;;;14.35;11.43;;;20.30;99.90;;;;;;7379148;19;20367;-63
2023/07/28 07:50:40;;;;;;;13.93;12.05;;;20.30;99.90;;;;;;7379198;19;20017;-63
2023/07/28 07:53:06;;;;;;;16.38;11.48;;;20.40;99.90;;;;;;7372160;19;20022;-57
2023/07/28 07:55:33;;;;;;;12.85;11.57;;;20.40;99.90;;;;;;7373040;19;20615;-58
2023/07/28 07:57:59;;;;;;;13.77;12.13;;;20.40;99.90;;;;;;7372099;19;20014;-56
2023/07/28 08:00:26;;;;;;;15.35;12.15;;;20.50;99.90;;;;;;7375214;19;20023;-65
2023/07/28 08:02:52;;;;;;;16.33;11.93;;;20.60;99.90;;;;;;7375014;19;20081;-56
2023/07/28 08:05:19;;;;;;;20.20;13.02;;;20.70;99.90;;;;;;7374880;19;20011;-57
2023/07/28 08:07:47;;;;;;;17.15;11.43;;;20.60;99.90;;;;;;7372492;19;20022;-57
2023/07/28 08:10:13;;;;;;;15.57;11.93;;;20.70;99.90;;;;;;7375448;19;20502;-56
2023/07/28 08:12:41;;;;;;;13.65;12.25;;;20.60;99.90;;;;;;7373394;19;20977;-58
2023/07/28 08:15:08;;;;;;;16.92;11.93;;;20.70;99.90;;;;;;7368176;19;20014;-58
2023/07/28 08:17:34;;;;;;;15.90;11.20;;;20.90;99.90;;;;;;7370758;19;20047;-57
2023/07/28 08:20:00;;;;;;;15.73;10.52;;;21.10;99.90;;;;;;7369636;19;20671;-57
2023/07/28 08:22:27;;;;;;;15.05;11.07;;;21.10;99.90;;;;;;7378336;19;20035;-57
2023/07/28 08:24:53;;;;;;;14.75;10.25;;;21.00;99.90;;;;;;7370259;19;20022;-58
2023/07/28 08:27:19;;;;;;;14.70;10.02;;;21.00;99.90;;;;;;7376147;19;20237;-57
2023/07/28 08:29:46;;;;;;;13.05;10.57;;;21.20;99.90;;;;;;7372741;19;20034;-57
2023/07/28 08:32:12;;;;;;;12.85;11.05;;;21.20;99.90;;;;;;7374601;19;20779;-56
2023/07/28 08:34:38;;;;;;;14.80;10.43;;;21.40;99.90;;;;;;7370288;19;20605;-57
2023/07/28 08:37:05;;;;;;;15.98;9.32;;;21.60;99.90;;;;;;7373045;19;20018;-56
2023/07/28 08:39:32;;;;;;;9.63;7.70;;;21.90;99.90;;;;;;7376078;19;20020;-57
2023/07/28 08:42:01;;;;;;;13.65;9.00;;;22.20;99.90;;;;;;7373956;19;20470;-65
2023/07/28 08:44:32;;;;;;;7.75;6.20;;;22.20;99.90;;;;;;7367070;19;20029;-63
2023/07/28 08:47:00;;;;;;;;;;;22.20;99.90;;;;;;7363084;19;20069;-57
2023/07/28 08:49:27;;;;;;;8.68;6.75;;;22.10;99.90;;;;;;7373777;19;19922;-57
2023/07/28 08:51:59;;;;;;;13.30;7.05;;;22.40;99.90;;;;;;7372936;19;20633;-57
2023/07/28 08:54:26;;;;;;;13.70;7.22;;;22.40;99.90;;;;;;7367788;19;20015;-56
2023/07/28 08:56:52;;;;;;;10.73;6.97;;;22.40;99.90;;;;;;7369348;19;20014;-57
2023/07/28 08:59:25;;;;;;;9.40;6.32;;;22.70;99.90;;;;;;7371069;19;20799;-57
2023/07/28 09:01:52;;;;;;;8.50;5.55;;;22.60;99.90;;;;;;7370101;19;20026;-57
2023/07/28 09:04:21;;;;;;;9.40;5.35;;;22.90;99.90;;;;;;7371788;19;20437;-57
2023/07/28 09:06:49;;;;;;;7.78;5.10;;;23.20;99.90;;;;;;7368465;19;20052;-57
2023/07/28 09:09:17;;;;;;;7.28;4.97;;;22.90;99.90;;;;;;7373970;19;20078;-56
2023/07/28 09:11:51;;;;;;;8.18;5.05;;;22.60;99.90;;;;;;7370159;19;20014;-57
2023/07/28 09:14:19;;;;;;;7.97;5.40;;;22.50;99.90;;;;;;7372065;19;20019;-58
2023/07/28 09:16:46;;;;;;;7.05;4.60;;;22.60;99.90;;;;;;7367207;19;20018;-57
2023/07/28 09:19:14;;;;;;;9.45;4.70;;;22.80;99.90;;;;;;7372725;19;20340;-56
2023/07/28 09:21:47;;;;;;;6.80;3.83;;;22.90;99.90;;;;;;7373066;19;20662;-57
2023/07/28 09:24:14;;;;;;;6.45;3.40;;;23.20;99.90;;;;;;7368771;19;20411;-57
2023/07/28 09:26:44;;;;;;;6.05;3.70;;;23.40;99.90;;;;;;7371528;19;20122;-57
2023/07/28 09:29:19;;;;;;;6.93;3.60;;;23.60;99.90;;;;;;7371778;19;20021;-58
2023/07/28 09:31:50;;;;;;;5.72;3.58;;;23.80;99.90;;;;;;7370818;19;20030;-57
2023/07/28 09:34:25;;;;;;;5.97;3.70;;;23.60;99.90;;;;;;7369739;19;20029;-57
2023/07/28 09:36:57;;;;;;;5.18;3.63;;;23.60;99.90;;;;;;7368563;19;20355;-57
2023/07/28 09:39:23;;;;;;;;;;;23.60;99.90;;;;;;7367648;19;20021;-57
2023/07/28 09:41:50;;;;;;;5.45;3.42;;;23.40;99.90;;;;;;7370178;19;20193;-57
2023/07/28 09:44:16;;;;;;;7.43;4.88;;;23.20;99.90;;;;;;7368886;19;20356;-57
2023/07/28 09:46:57;;;;;;;8.68;4.78;;;23.00;99.90;;;;;;7373776;19;20015;-57
2023/07/28 09:49:39;;;;;;;7.72;5.68;;;23.00;99.90;;;;;;7373731;19;20055;-58
2023/07/28 09:52:09;;;;;;;8.77;5.72;;;22.90;99.90;;;;;;7371109;19;20045;-57
2023/07/28 09:54:45;;;;;;;9.38;5.15;;;22.90;99.90;;;;;;7373203;19;20014;-57
2023/07/28 09:57:20;;;;;;;6.57;5.22;;;22.90;99.90;;;;;;7363799;19;20015;-58
2023/07/28 09:59:49;;;;;;;8.90;5.15;;;23.00;99.90;;;;;;7373977;19;20534;-57
2023/07/28 10:02:16;;;;;;;9.18;5.30;;;23.00;99.90;;;;;;7364853;19;20019;-65
2023/07/28 10:04:43;;;;;;;10.32;5.20;;;23.50;99.90;;;;;;7370943;19;20022;-57
2023/07/28 10:07:10;;;;;;;8.35;4.20;;;24.20;99.90;;;;;;7367236;19;20041;-67
2023/07/28 10:09:37;;;;;;;6.82;3.92;;;24.60;99.90;;;;;;7371945;19;20018;-66
2023/07/28 10:12:04;;;;;;;6.82;4.18;;;24.80;99.90;;;;;;7369924;19;20010;-65
2023/07/28 10:14:37;;;;;;;8.23;4.15;;;25.10;99.90;;;;;;7367010;19;20041;-60
2023/07/28 10:17:06;;;;;;;7.85;4.18;;;25.50;99.90;;;;;;7367775;19;20386;-59
2023/07/28 10:19:36;;;;;;;9.98;3.80;;;25.10;99.90;;;;;;7372878;19;20026;-60
2023/07/28 10:22:08;;;;;;;5.15;3.80;;;25.10;99.90;;;;;;7369111;19;20014;-64
2023/07/28 10:24:55;;;;;;;7.05;3.80;;;25.60;99.90;;;;;;7369403;19;20022;-58
2023/07/28 10:27:33;;;;;;;7.60;3.78;;;26.20;99.90;;;;;;7378181;19;20019;-58
2023/07/28 10:30:04;;;;;;;8.55;4.15;;;26.80;99.90;;;;;;7377895;19;20498;-58
2023/07/28 10:32:43;;;;;;;5.35;3.65;;;26.90;99.90;;;;;;7376538;19;20038;-58
2023/07/28 10:35:12;;;;;;;4.70;2.70;;;27.10;99.90;;;;;;7374860;19;20018;-58
2023/07/28 10:37:43;;;;;;;7.20;2.67;;;27.30;99.90;;;;;;7378717;19;20018;-59
2023/07/28 10:40:27;;;;;;;5.80;2.63;;;27.00;99.90;;;;;;7384974;19;20055;-58
2023/07/28 10:42:55;;;;;;;4.07;2.60;;;26.50;99.90;;;;;;7382933;19;20859;-64
2023/07/28 10:45:27;;;;;;;5.10;2.92;;;26.20;99.90;;;;;;7383460;19;20370;-65
2023/07/28 10:47:59;;;;;;;4.40;2.65;;;25.90;99.90;;;;;;7383378;19;20033;-65
2023/07/28 10:50:31;;;;;;;7.15;3.33;;;26.20;99.90;;;;;;7385498;19;20035;-65
2023/07/28 10:52:58;;;;;;;4.45;3.08;;;26.40;99.90;;;;;;7381242;19;20360;-65
2023/07/28 10:55:26;;;;;;;5.57;3.08;;;26.50;99.90;;;;;;7379107;19;20042;-65
2023/07/28 10:57:54;;;;;;;6.40;4.18;;;26.30;99.90;;;;;;7377206;19;20521;-65
2023/07/28 11:00:22;;;;;;;8.57;3.80;;;26.00;99.90;;;;;;7379160;19;20506;-65
2023/07/28 11:02:53;;;;;;;7.03;4.35;;;25.90;99.90;;;;;;7381645;19;20433;-65
2023/07/28 11:05:21;;;;;;;8.05;4.78;;;25.60;99.90;;;;;;7379713;19;20010;-64
2023/07/28 11:07:48;;;;;;;7.93;5.35;;;25.50;99.90;;;;;;7379706;19;20011;-67
2023/07/28 11:10:15;;;;;;;7.75;6.05;;;25.40;99.90;;;;;;7374495;19;20421;-65
2023/07/28 11:12:43;;;;;;;6.88;6.00;;;25.20;99.90;;;;;;7380172;19;20026;-66
2023/07/28 11:15:11;;;;;;;7.07;5.35;;;25.60;99.90;;;;;;7374061;19;20508;-57
2023/07/28 11:17:39;;;;;;;5.57;4.53;;;25.80;99.90;;;;;;7376263;19;20432;-64
2023/07/28 11:20:22;;;;;;;7.93;5.22;;;26.20;99.90;;;;;;7366872;19;20030;-56
2023/07/28 11:23:05;;;;;;;6.03;5.32;;;25.80;99.90;;;;;;7375057;19;20050;-56
2023/07/28 11:25:32;;;;;;;8.00;6.57;;;25.60;99.90;;;;;;7377855;19;20014;-57
2023/07/28 11:28:03;;;;;;;6.72;5.70;;;26.00;99.90;;;;;;7371597;19;20014;-66
2023/07/28 11:30:30;;;;;;;6.90;5.85;;;25.70;99.90;;;;;;7373386;19;20025;-66
2023/07/28 11:32:58;;;;;;;8.35;5.35;;;25.20;99.90;;;;;;7377062;19;20556;-66
2023/07/28 11:35:24;;;;;;;8.18;5.82;;;24.70;99.90;;;;;;7373189;19;20492;-66
2023/07/28 11:37:53;;;;;;;10.80;5.65;;;24.60;99.90;;;;;;7375302;19;20015;-66
2023/07/28 11:40:23;;;;;;;7.88;5.28;;;25.30;99.90;;;;;;7374814;19;20022;-63
2023/07/28 11:42:52;;;;;;;8.23;5.90;;;25.90;99.90;;;;;;7376530;19;20006;-65
2023/07/28 11:45:19;;;;;;;8.57;6.93;;;26.30;99.90;;;;;;7375127;19;20072;-63
2023/07/28 11:47:56;;;;;;;9.48;6.90;;;26.10;99.90;;;;;;7377231;19;20478;-64
2023/07/28 11:50:27;;;;;;;9.88;6.70;;;25.80;99.90;;;;;;7373790;19;20459;-64
2023/07/28 11:52:54;;;;;;;8.50;7.07;;;25.50;99.90;;;;;;7375889;19;20038;-58
2023/07/28 11:55:21;;;;;;;7.53;6.50;;;25.30;99.90;;;;;;7370305;19;20512;-57
2023/07/28 11:57:48;;;;;;;8.52;6.55;;;25.10;99.90;;;;;;7374007;19;20038;-56
2023/07/28 12:00:16;;;;;;;10.98;6.75;;;25.20;99.90;;;;;;7370821;19;20083;-65
2023/07/28 12:02:43;;;;;;;9.40;6.95;;;26.00;99.90;;;;;;7376629;19;20020;-65
2023/07/28 12:05:14;;;;;;;9.60;7.72;;;26.40;99.90;;;;;;7379035;19;20025;-64
2023/07/28 12:07:48;;;;;;;10.57;9.48;;;26.30;99.90;;;;;;7376578;19;20019;-63
2023/07/28 12:10:15;;;;;;;53.70;48.50;;;26.20;99.90;;;;;;7375826;19;20615;-56
2023/07/28 12:12:44;;;;;;;48.45;44.15;;;26.10;99.90;;;;;;7376890;19;20465;-63
2023/07/28 12:15:30;;;;;;;7.35;5.25;;;26.20;99.90;;;;;;7370385;19;20396;-64
2023/07/28 12:18:14;;;;;;;11.30;7.82;;;25.80;99.90;;;;;;7376124;19;20455;-57
2023/07/28 12:20:46;;;;;;;12.15;9.95;;;25.70;99.90;;;;;;7374761;19;20015;-64
2023/07/28 12:23:15;;;;;;;38.50;34.67;;;26.10;99.90;;;;;;7376853;19;20561;-65
2023/07/28 12:25:42;;;;;;;34.28;30.58;;;26.00;99.90;;;;;;7378765;19;20018;-64
2023/07/28 12:28:08;;;;;;;42.13;38.13;;;26.10;99.90;;;;;;7375520;19;20018;-65
2023/07/28 12:30:35;;;;;;;12.77;8.23;;;26.80;99.90;;;;;;7376137;19;20375;-64
2023/07/28 12:33:03;;;;;;;17.45;15.60;;;26.90;99.90;;;;;;7377357;19;20022;-64
2023/07/28 12:35:34;;;;;;;17.13;15.20;;;26.60;99.90;;;;;;7375815;19;20026;-64
2023/07/28 12:38:04;;;;;;;10.23;5.63;;;26.10;99.90;;;;;;7374280;19;20019;-65
2023/07/28 12:40:32;;;;;;;6.70;5.68;;;25.90;99.90;;;;;;7374436;19;20373;-65